Time;durP1;ratioP1;P1;durP2;ratioP2;P2;SDS_P1;SDS_P2;PMS_P1;PMS_P2;Temp;Humidity;BMP_temperature;BMP_pressure;BME280_temperature;BME280_humidity;BME280_pressure;Samples;Min_cycle;Max_cycle;Signal;HPM_P1;HPM_P2
2023/04/20 00:07:40;;;;;;;11.00;8.27;;;8.10;1.00;;;;;;4997152;28;21126;-79
2023/04/20 00:10:33;;;;;;;11.67;7.80;;;8.10;1.00;;;;;;5020609;28;20551;-80
2023/04/20 00:13:08;;;;;;;10.40;7.10;;;8.10;1.00;;;;;;5004193;28;20472;-81
2023/04/20 00:15:55;;;;;;;10.53;7.73;;;8.10;1.00;;;;;;5019113;28;20477;-80
2023/04/20 00:29:58;;;;;;;10.00;7.53;;;8.10;1.00;;;;;;5008090;28;20464;-80
2023/04/20 00:35:23;;;;;;;11.33;7.30;;;8.10;1.00;;;;;;4994327;28;20998;-79
2023/04/20 00:38:20;;;;;;;9.13;6.57;;;8.10;1.00;;;;;;5006822;28;21260;-81
2023/04/20 00:40:56;;;;;;;10.53;7.17;;;8.20;1.00;;;;;;5002835;28;20455;-82
2023/04/20 00:58:19;;;;;;;11.10;7.57;;;8.10;1.00;;;;;;4994281;28;20461;-81
2023/04/20 01:01:10;;;;;;;9.43;7.53;;;8.00;1.00;;;;;;5001829;28;21000;-80
2023/04/20 01:03:37;;;;;;;10.33;7.07;;;8.00;1.00;;;;;;5001906;28;20918;-80
2023/04/20 01:06:17;;;;;;;10.67;7.07;;;8.00;1.00;;;;;;4999822;28;21036;-80
2023/04/20 01:20:52;;;;;;;10.73;7.67;;;7.90;1.00;;;;;;5006979;28;23479;-79
2023/04/20 01:26:41;;;;;;;10.07;7.23;;;7.70;1.00;;;;;;4980699;28;21048;-80
2023/04/20 01:35:06;;;;;;;10.33;7.73;;;7.70;1.00;;;;;;5004186;28;21001;-80
2023/04/20 01:37:37;;;;;;;11.23;8.07;;;7.70;1.00;;;;;;5008542;28;20430;-79
2023/04/20 01:40:15;;;;;;;11.00;8.17;;;7.70;1.00;;;;;;5003951;28;20512;-80
2023/04/20 01:51:08;;;;;;;10.70;9.43;;;7.60;1.00;;;;;;5014028;28;20434;-81
2023/04/20 01:56:47;;;;;;;11.40;9.70;;;7.50;1.00;;;;;;5043009;28;20512;-82
2023/04/20 01:59:14;;;;;;;15.17;10.83;;;7.50;1.00;;;;;;5043474;28;20449;-80
2023/04/20 02:01:44;;;;;;;11.63;9.23;;;7.60;1.00;;;;;;5007445;28;20469;-81
2023/04/20 02:04:28;;;;;;;13.13;9.73;;;7.80;1.00;;;;;;5035929;28;20449;-81
2023/04/20 02:20:29;;;;;;;13.67;9.20;;;7.90;1.00;;;;;;5024715;28;20496;-79
2023/04/20 02:23:06;;;;;;;12.27;9.73;;;7.90;1.00;;;;;;5026485;28;20887;-79
2023/04/20 02:31:21;;;;;;;13.63;10.80;;;7.80;1.00;;;;;;5013263;28;20985;-80
2023/04/20 02:34:13;;;;;;;14.83;11.30;;;7.80;1.00;;;;;;5008260;28;20468;-80
2023/04/20 02:45:41;;;;;;;14.80;11.87;;;8.00;1.00;;;;;;5014576;28;20465;-80
2023/04/20 02:59:58;;;;;;;16.50;12.10;;;8.10;1.00;;;;;;4923711;28;20476;-80
2023/04/20 03:05:19;;;;;;;15.37;12.43;;;8.00;1.00;;;;;;4991482;28;20487;-80
2023/04/20 03:22:18;;;;;;;17.37;13.13;;;8.20;1.00;;;;;;4974386;28;20518;-82
2023/04/20 03:27:35;;;;;;;18.03;16.10;;;8.00;1.00;;;;;;4989254;28;20465;-80
2023/04/20 03:35:53;;;;;;;19.00;15.57;;;8.10;1.00;;;;;;4990853;28;20967;-80
2023/04/20 03:41:24;;;;;;;18.60;13.93;;;8.10;1.00;;;;;;4984593;28;20477;-79
2023/04/20 03:47:49;;;;;;;19.17;13.50;;;8.10;1.00;;;;;;4993071;28;20963;-80
2023/04/20 03:53:18;;;;;;;21.30;14.90;;;8.00;1.00;;;;;;4991312;28;21197;-80
2023/04/20 03:55:52;;;;;;;22.43;15.97;;;8.00;1.00;;;;;;5004271;28;20453;-80
2023/04/20 03:58:20;;;;;;;20.60;15.57;;;7.90;1.00;;;;;;4975740;28;20450;-79
2023/04/20 04:17:14;;;;;;;20.20;14.63;;;8.00;1.00;;;;;;5066869;22;20447;-87
2023/04/20 04:19:42;;;;;;;19.00;15.37;;;8.00;1.00;;;;;;5010455;28;20656;-87
2023/04/20 04:22:09;;;;;;;23.10;16.40;;;8.00;1.00;;;;;;5009318;28;20430;-85
2023/04/20 04:24:37;;;;;;;25.63;21.60;;;7.90;1.00;;;;;;5012485;28;22078;-86
2023/04/20 04:27:05;;;;;;;18.47;14.50;;;8.10;1.00;;;;;;5008155;28;20576;-85
2023/04/20 04:29:34;;;;;;;22.60;16.77;;;8.10;1.00;;;;;;5012487;28;20482;-85
2023/04/20 04:32:04;;;;;;;22.20;16.00;;;8.10;1.00;;;;;;5009252;28;20466;-86
2023/04/20 04:34:32;;;;;;;22.07;16.93;;;8.00;1.00;;;;;;5015431;28;20958;-85
2023/04/20 04:37:01;;;;;;;24.97;18.00;;;8.10;1.00;;;;;;5015797;28;20473;-83
2023/04/20 04:39:33;;;;;;;26.80;18.23;;;8.10;1.00;;;;;;5012337;28;21803;-87
2023/04/20 04:42:01;;;;;;;24.93;16.97;;;8.20;1.00;;;;;;5022483;28;20475;-84
2023/04/20 04:44:30;;;;;;;27.27;17.20;;;8.00;1.00;;;;;;5012788;28;20655;-83
2023/04/20 04:46:57;;;;;;;25.17;17.03;;;8.10;1.00;;;;;;5015187;28;20515;-85
2023/04/20 04:49:28;;;;;;;22.87;18.40;;;8.10;1.00;;;;;;5017757;28;20458;-85
2023/04/20 04:51:57;;;;;;;28.37;18.60;;;8.20;1.00;;;;;;5009963;28;20434;-84
2023/04/20 04:54:25;;;;;;;24.33;16.33;;;8.20;1.00;;;;;;5017369;28;20470;-85
2023/04/20 04:56:53;;;;;;;22.40;17.63;;;8.10;1.00;;;;;;5010084;28;20470;-84
2023/04/20 04:59:20;;;;;;;25.47;18.10;;;8.20;1.00;;;;;;5011100;28;20467;-83
2023/04/20 05:01:47;;;;;;;24.97;17.33;;;8.10;1.00;;;;;;5002886;28;20520;-82
2023/04/20 05:04:21;;;;;;;25.10;17.50;;;8.10;1.00;;;;;;5009062;28;20473;-83
2023/04/20 05:06:49;;;;;;;23.30;17.63;;;8.20;1.00;;;;;;5010908;28;21273;-85
2023/04/20 05:09:17;;;;;;;23.10;17.80;;;8.30;1.00;;;;;;5010697;28;21213;-82
2023/04/20 05:11:48;;;;;;;25.17;17.13;;;8.40;1.00;;;;;;5013315;28;20544;-83
2023/04/20 05:14:17;;;;;;;23.80;16.60;;;8.30;1.00;;;;;;5012702;28;20462;-83
2023/04/20 05:16:56;;;;;;;21.77;17.30;;;8.30;1.00;;;;;;5023747;28;20477;-85
2023/04/20 05:19:24;;;;;;;26.17;18.50;;;8.40;1.00;;;;;;5031673;28;20433;-85
2023/04/20 05:21:51;;;;;;;24.80;19.17;;;8.20;1.00;;;;;;5028058;28;20484;-83
2023/04/20 05:24:22;;;;;;;36.07;25.20;;;8.20;1.00;;;;;;5031775;28;20437;-85
2023/04/20 05:26:49;;;;;;;24.77;17.47;;;8.30;1.00;;;;;;5024770;28;20445;-84
2023/04/20 05:29:17;;;;;;;24.23;18.43;;;8.40;1.00;;;;;;5028477;28;20520;-83
2023/04/20 05:31:45;;;;;;;28.67;20.37;;;8.50;1.00;;;;;;5030186;28;20429;-84
2023/04/20 05:34:11;;;;;;;21.40;16.20;;;8.50;1.00;;;;;;5025915;28;20454;-84
2023/04/20 05:36:40;;;;;;;23.60;18.30;;;8.50;1.00;;;;;;5026140;28;20476;-86
2023/04/20 05:39:07;;;;;;;25.50;18.40;;;8.50;1.00;;;;;;5025810;28;20457;-83
2023/04/20 05:41:35;;;;;;;25.23;18.60;;;8.70;1.00;;;;;;5032247;28;20453;-87
2023/04/20 05:44:02;;;;;;;26.20;17.33;;;8.80;1.00;;;;;;5029434;28;20480;-85
2023/04/20 05:46:30;;;;;;;26.10;18.60;;;8.80;1.00;;;;;;5031324;28;20468;-87
2023/04/20 05:48:57;;;;;;;29.37;21.30;;;8.90;1.00;;;;;;5038431;28;20422;-86
2023/04/20 05:51:27;;;;;;;22.17;16.70;;;8.90;1.00;;;;;;5033516;28;20486;-83
2023/04/20 05:53:55;;;;;;;26.23;17.57;;;8.90;1.00;;;;;;5032705;28;20478;-86
2023/04/20 05:56:22;;;;;;;24.30;18.10;;;8.90;1.00;;;;;;5029810;28;20504;-83
2023/04/20 05:58:51;;;;;;;23.10;18.30;;;9.00;1.00;;;;;;5033094;28;20454;-80
2023/04/20 06:01:18;;;;;;;33.90;30.33;;;8.90;1.00;;;;;;5030766;28;20457;-83
2023/04/20 06:03:46;;;;;;;21.40;17.70;;;8.80;1.00;;;;;;5040457;28;20555;-84
2023/04/20 06:06:12;;;;;;;22.23;18.27;;;8.90;1.00;;;;;;5032302;28;20433;-83
2023/04/20 06:08:42;;;;;;;21.57;15.90;;;8.90;1.00;;;;;;5032203;28;21530;-83
2023/04/20 06:11:10;;;;;;;24.20;18.50;;;9.00;1.00;;;;;;5033146;28;20450;-83
2023/04/20 06:13:37;;;;;;;24.77;18.50;;;8.90;1.00;;;;;;5030798;28;20454;-84
2023/04/20 06:16:08;;;;;;;20.50;16.93;;;9.00;1.00;;;;;;5031234;28;20446;-81
2023/04/20 06:18:35;;;;;;;20.53;17.23;;;9.00;1.00;;;;;;5033035;28;20457;-81
2023/04/20 06:21:02;;;;;;;21.23;16.10;;;8.90;1.00;;;;;;5030197;28;20554;-84
2023/04/20 06:23:29;;;;;;;23.20;17.23;;;8.90;1.00;;;;;;5034431;28;20496;-84
2023/04/20 06:25:59;;;;;;;26.17;19.27;;;8.90;1.00;;;;;;5035860;28;20730;-83
2023/04/20 06:28:26;;;;;;;22.23;17.83;;;8.80;1.00;;;;;;5032791;28;20560;-84
2023/04/20 06:30:53;;;;;;;23.43;18.03;;;8.80;1.00;;;;;;5032684;28;20436;-85
2023/04/20 06:33:21;;;;;;;24.37;17.97;;;8.70;1.00;;;;;;5031809;28;20917;-83
2023/04/20 06:35:50;;;;;;;21.83;17.00;;;8.90;1.00;;;;;;5034066;28;20445;-81
2023/04/20 06:38:17;;;;;;;22.97;17.30;;;9.10;1.00;;;;;;5034735;28;20464;-83
2023/04/20 06:40:44;;;;;;;24.63;18.20;;;9.30;1.00;;;;;;5035732;28;20544;-83
2023/04/20 06:43:11;;;;;;;24.40;15.93;;;9.40;1.00;;;;;;5030228;28;20457;-81
2023/04/20 06:45:39;;;;;;;26.20;17.73;;;9.60;1.00;;;;;;5028496;28;20528;-82
2023/04/20 06:48:08;;;;;;;21.83;16.93;;;9.80;1.00;;;;;;5031017;28;20577;-81
2023/04/20 06:50:37;;;;;;;22.50;16.20;;;9.80;1.00;;;;;;5029262;28;20450;-84
2023/04/20 06:53:04;;;;;;;22.90;16.93;;;9.90;1.00;;;;;;5034427;28;20483;-82
2023/04/20 06:55:31;;;;;;;22.47;17.40;;;9.80;1.00;;;;;;5034307;28;20437;-86
2023/04/20 06:57:58;;;;;;;20.90;16.43;;;9.90;1.00;;;;;;5018567;28;20422;-86
2023/04/20 07:00:28;;;;;;;23.20;17.90;;;9.90;1.00;;;;;;5039799;28;20532;-86
2023/04/20 07:02:57;;;;;;;20.40;16.07;;;10.10;1.00;;;;;;5034328;28;20469;-85
2023/04/20 07:05:27;;;;;;;18.60;15.37;;;10.30;1.00;;;;;;5039358;28;20471;-86
2023/04/20 07:07:55;;;;;;;22.07;16.50;;;10.50;1.00;;;;;;5034838;28;20459;-87
2023/04/20 07:10:22;;;;;;;22.20;15.83;;;10.60;1.00;;;;;;5036026;28;20450;-88
2023/04/20 07:12:49;;;;;;;21.73;17.50;;;10.60;1.00;;;;;;5035589;28;20510;-84
2023/04/20 07:15:16;;;;;;;20.90;17.77;;;10.80;1.00;;;;;;5032625;28;20536;-87
2023/04/20 07:17:43;;;;;;;26.50;18.20;;;11.10;1.00;;;;;;5039152;28;20474;-85
2023/04/20 07:20:11;;;;;;;19.30;16.53;;;11.30;1.00;;;;;;5030304;28;20531;-86
2023/04/20 07:22:38;;;;;;;23.40;18.47;;;11.40;1.00;;;;;;5033802;28;20638;-86
2023/04/20 07:25:08;;;;;;;24.03;17.60;;;11.40;1.00;;;;;;5029388;28;20479;-86
2023/04/20 07:27:37;;;;;;;20.20;17.70;;;11.40;1.00;;;;;;5042852;28;20428;-85
2023/04/20 07:30:07;;;;;;;22.47;17.93;;;11.30;1.00;;;;;;5031076;28;20467;-85
2023/04/20 07:32:35;;;;;;;24.20;16.77;;;11.40;1.00;;;;;;5042803;28;20472;-86
2023/04/20 07:35:02;;;;;;;20.10;16.27;;;11.50;1.00;;;;;;5043650;28;20448;-84
2023/04/20 07:37:30;;;;;;;19.60;16.03;;;11.60;1.00;;;;;;5036557;28;20463;-85
2023/04/20 07:39:57;;;;;;;22.80;16.73;;;11.30;1.00;;;;;;5034702;28;20458;-89
2023/04/20 07:42:25;;;;;;;23.20;16.60;;;11.30;1.00;;;;;;5035887;28;20440;-86
2023/04/20 07:44:52;;;;;;;22.60;18.27;;;11.30;1.00;;;;;;5044143;28;20511;-88
2023/04/20 07:47:22;;;;;;;21.50;17.00;;;11.40;1.00;;;;;;5040298;28;21110;-87
2023/04/20 07:49:49;;;;;;;19.37;16.40;;;11.30;1.00;;;;;;5045787;28;20497;-85
2023/04/20 07:52:17;;;;;;;23.13;17.67;;;11.20;1.00;;;;;;5050327;28;20450;-85
2023/04/20 07:54:46;;;;;;;21.43;17.20;;;11.00;1.00;;;;;;5050473;28;20434;-87
2023/04/20 07:57:14;;;;;;;109.27;70.63;;;11.00;1.00;;;;;;5043646;28;20637;-87
2023/04/20 07:59:42;;;;;;;24.53;18.17;;;11.30;1.00;;;;;;5052113;28;20462;-88
2023/04/20 08:02:09;;;;;;;20.80;17.47;;;11.40;1.00;;;;;;5048016;28;20418;-87
2023/04/20 08:04:39;;;;;;;23.77;17.30;;;11.50;1.00;;;;;;5041450;28;20471;-84
2023/04/20 08:07:06;;;;;;;20.90;17.33;;;11.70;1.00;;;;;;5042099;28;20458;-88
2023/04/20 08:09:35;;;;;;;21.83;18.43;;;11.80;1.00;;;;;;5042208;28;20482;-89
2023/04/20 08:12:02;;;;;;;21.87;16.60;;;11.90;1.00;;;;;;5040902;28;20419;-88
2023/04/20 08:14:32;;;;;;;23.67;17.27;;;11.90;1.00;;;;;;5039291;28;20460;-89
2023/04/20 08:17:01;;;;;;;20.77;17.10;;;12.30;1.00;;;;;;5037664;28;20478;-87
2023/04/20 08:19:28;;;;;;;18.50;15.00;;;12.50;1.00;;;;;;5037774;28;20464;-87
2023/04/20 08:21:55;;;;;;;20.97;16.60;;;12.40;1.00;;;;;;5039928;28;20451;-88
2023/04/20 08:24:22;;;;;;;22.83;17.70;;;12.70;1.00;;;;;;5041247;28;20506;-89
2023/04/20 08:26:49;;;;;;;20.73;16.33;;;13.00;1.00;;;;;;5037383;28;20475;-86
2023/04/20 08:29:17;;;;;;;19.23;15.93;;;13.20;1.00;;;;;;5039661;28;20471;-87
2023/04/20 08:31:44;;;;;;;19.27;16.30;;;13.30;1.00;;;;;;5038783;28;21353;-86
2023/04/20 08:34:12;;;;;;;20.07;16.27;;;13.10;1.00;;;;;;5040321;28;20527;-87
2023/04/20 08:36:39;;;;;;;19.30;15.10;;;12.90;1.00;;;;;;5034776;28;20460;-86
2023/04/20 08:39:08;;;;;;;19.90;16.53;;;12.50;1.00;;;;;;5035092;28;20459;-86
2023/04/20 08:41:35;;;;;;;19.60;15.87;;;12.40;1.00;;;;;;5035581;28;20425;-88
2023/04/20 08:44:02;;;;;;;20.17;15.80;;;12.30;1.00;;;;;;5035399;28;20442;-89
2023/04/20 08:46:30;;;;;;;24.53;16.37;;;12.10;1.00;;;;;;5033926;28;20440;-86
2023/04/20 08:48:57;;;;;;;17.50;15.50;;;11.90;1.00;;;;;;5037438;28;20490;-86
2023/04/20 08:51:26;;;;;;;20.23;16.40;;;11.70;1.00;;;;;;5039138;28;20454;-87
2023/04/20 08:53:55;;;;;;;18.60;15.37;;;11.50;1.00;;;;;;5035939;28;20431;-86
2023/04/20 08:56:34;;;;;;;20.80;16.57;;;11.40;1.00;;;;;;5035830;28;20435;-86
2023/04/20 08:59:04;;;;;;;19.30;16.50;;;11.20;1.00;;;;;;5033845;28;20489;-88
2023/04/20 09:01:34;;;;;;;17.73;14.60;;;11.00;1.00;;;;;;5033895;28;20508;-88
2023/04/20 09:04:01;;;;;;;20.10;16.00;;;10.90;1.00;;;;;;5034613;28;20454;-87
2023/04/20 09:06:30;;;;;;;21.27;17.00;;;10.80;1.00;;;;;;5037400;28;20460;-87
2023/04/20 09:08:58;;;;;;;19.50;16.57;;;10.60;1.00;;;;;;5035393;28;20448;-87
2023/04/20 09:11:26;;;;;;;19.80;15.60;;;10.60;1.00;;;;;;5038497;28;20513;-87
2023/04/20 09:14:00;;;;;;;21.13;17.10;;;10.50;1.00;;;;;;5036880;28;20474;-88
2023/04/20 09:16:28;;;;;;;20.43;16.73;;;10.30;1.00;;;;;;5040193;28;20553;-88
2023/04/20 09:18:56;;;;;;;20.93;16.70;;;10.30;1.00;;;;;;5038471;28;20496;-86
2023/04/20 09:21:26;;;;;;;18.40;15.87;;;10.20;1.00;;;;;;5039868;28;20471;-87
2023/04/20 09:23:59;;;;;;;22.73;16.80;;;10.20;1.00;;;;;;5043357;28;20436;-87
2023/04/20 09:26:29;;;;;;;21.93;14.90;;;10.20;1.00;;;;;;5042295;28;20479;-87
2023/04/20 09:28:57;;;;;;;20.33;16.33;;;10.20;1.00;;;;;;5039048;28;20426;-85
2023/04/20 09:31:25;;;;;;;20.40;16.13;;;10.20;1.00;;;;;;5036477;28;20425;-87
2023/04/20 09:34:00;;;;;;;20.10;17.80;;;10.30;1.00;;;;;;5038468;28;20476;-87
2023/04/20 09:36:37;;;;;;;21.97;16.90;;;10.50;1.00;;;;;;5042278;28;20467;-87
2023/04/20 09:39:08;;;;;;;18.63;15.77;;;10.80;1.00;;;;;;5041513;28;20568;-87
2023/04/20 09:41:37;;;;;;;19.40;16.50;;;11.00;1.00;;;;;;5041670;28;20429;-87
2023/04/20 09:44:05;;;;;;;21.70;16.40;;;11.10;1.00;;;;;;5042501;28;20480;-84
2023/04/20 09:46:34;;;;;;;17.50;14.30;;;11.20;1.00;;;;;;5040985;28;20437;-85
2023/04/20 09:49:03;;;;;;;20.73;16.40;;;11.30;1.00;;;;;;5036840;28;20549;-85
2023/04/20 09:51:31;;;;;;;20.63;16.23;;;11.50;1.00;;;;;;5048577;28;20420;-88
2023/04/20 09:54:00;;;;;;;19.23;15.47;;;11.90;1.00;;;;;;5047748;28;20443;-89
2023/04/20 09:56:30;;;;;;;17.23;15.20;;;12.10;1.00;;;;;;5051048;28;20459;-89
2023/04/20 09:58:59;;;;;;;18.50;15.00;;;12.20;1.00;;;;;;5039608;28;20515;-88
2023/04/20 10:01:30;;;;;;;18.63;15.43;;;12.40;1.00;;;;;;5047652;28;20500;-88
2023/04/20 10:04:00;;;;;;;15.87;13.23;;;12.70;1.00;;;;;;5045529;28;20472;-90
2023/04/20 10:06:29;;;;;;;17.03;14.50;;;13.00;1.00;;;;;;5045788;28;20430;-90
2023/04/20 10:08:57;;;;;;;16.10;13.37;;;13.20;1.00;;;;;;5040311;28;20429;-90
2023/04/20 10:11:30;;;;;;;14.87;12.90;;;13.50;1.00;;;;;;5041785;28;20442;-89
2023/04/20 10:13:58;;;;;;;16.33;13.50;;;14.30;1.00;;;;;;5041734;28;20488;-88
2023/04/20 10:16:26;;;;;;;20.90;14.80;;;15.60;1.00;;;;;;5042337;28;20449;-89
2023/04/20 10:19:01;;;;;;;13.03;11.67;;;16.70;1.00;;;;;;5027695;28;20463;-87
2023/04/20 10:21:28;;;;;;;15.17;11.97;;;18.00;1.00;;;;;;5042263;28;20481;-89
2023/04/20 10:23:57;;;;;;;13.30;11.17;;;19.10;1.00;;;;;;5046089;28;22080;-89
2023/04/20 10:26:36;;;;;;;14.17;12.13;;;19.80;1.00;;;;;;5045900;28;20440;-89
2023/04/20 10:29:05;;;;;;;15.07;11.77;;;19.50;1.00;;;;;;5038640;28;20517;-89
2023/04/20 10:31:37;;;;;;;14.90;12.13;;;19.60;1.00;;;;;;5046489;28;20458;-89
2023/04/20 10:34:04;;;;;;;13.40;11.30;;;19.90;1.00;;;;;;5044212;28;20500;-90
2023/04/20 10:36:35;;;;;;;15.83;13.17;;;20.40;1.00;;;;;;5043074;28;20525;-89
2023/04/20 10:39:13;;;;;;;12.60;10.93;;;20.10;1.00;;;;;;5042398;28;20464;-89
2023/04/20 10:41:57;;;;;;;13.87;11.93;;;19.50;1.00;;;;;;5048004;28;20455;-90
2023/04/20 10:44:25;;;;;;;13.90;10.87;;;19.90;1.00;;;;;;5040984;28;21281;-91
2023/04/20 10:46:53;;;;;;;13.37;11.07;;;20.40;1.00;;;;;;5042898;28;20587;-90
2023/04/20 10:49:25;;;;;;;16.83;11.50;;;20.60;1.00;;;;;;5045310;28;20491;-91
2023/04/20 10:51:53;;;;;;;14.60;12.10;;;21.40;1.00;;;;;;5040907;28;20440;-88
2023/04/20 10:54:20;;;;;;;16.63;11.97;;;22.20;1.00;;;;;;5049562;28;20424;-90
2023/04/20 10:56:49;;;;;;;18.20;11.40;;;22.40;1.00;;;;;;5048456;28;20432;-90
2023/04/20 10:59:17;;;;;;;16.73;12.30;;;23.30;1.00;;;;;;5031293;28;20487;-91
2023/04/20 11:01:48;;;;;;;21.20;12.97;;;24.10;1.00;;;;;;5047276;28;20450;-91
2023/04/20 11:04:15;;;;;;;17.77;12.20;;;23.40;1.00;;;;;;5043380;28;20435;-90
2023/04/20 11:06:44;;;;;;;17.10;12.77;;;22.30;1.00;;;;;;5052814;28;20440;-90
2023/04/20 11:09:19;;;;;;;15.67;12.83;;;21.20;1.00;;;;;;5046202;28;20413;-91
2023/04/20 11:11:58;;;;;;;20.23;15.83;;;19.70;1.00;;;;;;5055139;28;20432;-91
2023/04/20 11:14:28;;;;;;;16.63;14.83;;;19.20;1.00;;;;;;5046459;28;20447;-91
2023/04/20 11:16:57;;;;;;;16.80;13.27;;;19.00;1.00;;;;;;5047332;28;20424;-90
2023/04/20 11:19:26;;;;;;;18.07;13.50;;;18.70;1.00;;;;;;5039615;28;20444;-91
2023/04/20 11:21:55;;;;;;;18.90;13.40;;;18.20;1.00;;;;;;5039341;28;20457;-81
2023/04/20 11:24:24;;;;;;;24.90;15.63;;;17.90;1.00;;;;;;5028263;28;20492;-81
2023/04/20 11:26:53;;;;;;;20.07;16.63;;;18.10;1.00;;;;;;5033206;28;21003;-81
2023/04/20 11:29:33;;;;;;;16.40;13.60;;;18.30;1.00;;;;;;5029308;28;20459;-79
2023/04/20 11:32:07;;;;;;;24.23;15.33;;;18.10;1.00;;;;;;5030353;28;20461;-83
2023/04/20 11:34:36;;;;;;;17.00;13.97;;;17.90;1.00;;;;;;5010854;28;20439;-82
2023/04/20 11:37:05;;;;;;;17.73;15.40;;;17.80;1.00;;;;;;5028307;28;20453;-82
2023/04/20 11:39:32;;;;;;;16.10;14.07;;;18.10;1.00;;;;;;5028032;28;20528;-81
2023/04/20 11:42:00;;;;;;;22.83;15.10;;;18.00;1.00;;;;;;5024840;28;20950;-81
2023/04/20 11:44:29;;;;;;;29.90;15.07;;;18.20;1.00;;;;;;5030192;28;20955;-84
2023/04/20 11:46:58;;;;;;;15.97;13.20;;;19.50;1.00;;;;;;5024985;28;20467;-82
2023/04/20 11:49:28;;;;;;;19.30;15.47;;;20.00;1.00;;;;;;5026683;28;20597;-82
2023/04/20 11:51:55;;;;;;;18.97;15.40;;;19.90;1.00;;;;;;5027642;28;20496;-82
2023/04/20 11:54:24;;;;;;;19.17;14.30;;;20.10;1.00;;;;;;5029469;28;20513;-84
2023/04/20 11:56:51;;;;;;;19.20;14.40;;;20.10;1.00;;;;;;5028348;28;20437;-81
2023/04/20 11:59:19;;;;;;;21.40;16.00;;;19.50;1.00;;;;;;5025403;28;20503;-81
2023/04/20 12:01:48;;;;;;;18.67;13.70;;;19.10;1.00;;;;;;5029767;28;20430;-84
2023/04/20 12:04:15;;;;;;;19.23;14.40;;;19.00;1.00;;;;;;5023749;28;20497;-81
2023/04/20 12:06:44;;;;;;;22.70;15.73;;;18.80;1.00;;;;;;5028541;28;20459;-82
2023/04/20 12:09:14;;;;;;;17.40;14.23;;;18.70;1.00;;;;;;5028475;28;20467;-81
2023/04/20 12:11:41;;;;;;;22.37;14.63;;;18.80;1.00;;;;;;5030867;28;20461;-82
2023/04/20 12:14:08;;;;;;;17.27;13.80;;;19.40;1.00;;;;;;5026486;28;20489;-83
2023/04/20 12:16:36;;;;;;;20.30;15.07;;;19.50;1.00;;;;;;5027316;28;20461;-81
2023/04/20 12:19:03;;;;;;;20.20;14.40;;;19.70;1.00;;;;;;5031710;28;20505;-83
2023/04/20 12:21:31;;;;;;;16.70;14.90;;;19.80;1.00;;;;;;5031239;28;20450;-82
2023/04/20 12:23:59;;;;;;;18.53;15.10;;;19.70;1.00;;;;;;5026238;28;20558;-82
2023/04/20 12:26:28;;;;;;;21.97;15.33;;;19.80;1.00;;;;;;5026981;28;20557;-82
2023/04/20 12:28:57;;;;;;;18.03;13.80;;;19.60;1.00;;;;;;5028461;28;20484;-84
2023/04/20 12:31:24;;;;;;;20.17;16.17;;;19.60;1.00;;;;;;5029230;28;20460;-82
2023/04/20 12:33:51;;;;;;;22.23;15.90;;;19.40;1.00;;;;;;5023522;28;20485;-82
2023/04/20 12:36:18;;;;;;;16.57;14.60;;;19.50;1.00;;;;;;5024252;28;20465;-82
2023/04/20 12:38:46;;;;;;;17.20;13.40;;;20.50;1.00;;;;;;5026574;28;20458;-82
2023/04/20 12:41:15;;;;;;;19.60;15.97;;;20.80;1.00;;;;;;5024703;28;20871;-83
2023/04/20 12:43:42;;;;;;;17.90;14.23;;;20.50;1.00;;;;;;5025664;28;20519;-84
2023/04/20 12:46:11;;;;;;;15.90;13.93;;;20.00;1.00;;;;;;5026620;28;20456;-83
2023/04/20 12:48:37;;;;;;;18.60;14.33;;;20.00;1.00;;;;;;5021503;28;20485;-81
2023/04/20 12:51:05;;;;;;;17.90;14.30;;;20.60;1.00;;;;;;5034518;28;20459;-80
2023/04/20 12:53:32;;;;;;;19.60;13.80;;;22.40;1.00;;;;;;5029469;28;20550;-80
2023/04/20 12:55:59;;;;;;;17.53;13.80;;;24.10;1.00;;;;;;5033365;28;20528;-82
2023/04/20 12:58:28;;;;;;;19.80;14.83;;;25.90;1.00;;;;;;5033723;28;20421;-84
2023/04/20 13:00:57;;;;;;;14.60;13.10;;;27.80;1.00;;;;;;5037197;28;20461;-82
2023/04/20 13:03:24;;;;;;;15.37;12.63;;;29.20;1.00;;;;;;5032063;28;21022;-83
2023/04/20 13:05:51;;;;;;;13.47;12.07;;;29.90;1.00;;;;;;5032710;28;20460;-83
2023/04/20 13:08:18;;;;;;;15.40;13.80;;;29.80;1.00;;;;;;5031564;28;20531;-82
2023/04/20 13:10:46;;;;;;;19.17;15.40;;;29.10;1.00;;;;;;5037461;28;20527;-82
2023/04/20 13:13:13;;;;;;;18.77;13.40;;;28.30;1.00;;;;;;5027880;28;20556;-81
2023/04/20 13:15:41;;;;;;;17.73;14.80;;;27.70;1.00;;;;;;5029189;28;20487;-81
2023/04/20 13:18:13;;;;;;;16.23;14.53;;;26.20;1.00;;;;;;5030621;28;21054;-81
2023/04/20 13:20:41;;;;;;;19.10;14.37;;;24.60;1.00;;;;;;5029745;28;20454;-79
2023/04/20 13:23:08;;;;;;;14.70;13.20;;;23.10;1.00;;;;;;5030406;28;20473;-81
2023/04/20 13:25:37;;;;;;;16.20;12.57;;;23.20;1.00;;;;;;5032020;28;20538;-82
2023/04/20 13:28:05;;;;;;;17.97;12.60;;;24.60;1.00;;;;;;5024892;28;20471;-82
2023/04/20 13:30:32;;;;;;;14.97;12.87;;;25.30;1.00;;;;;;5030752;28;20419;-81
2023/04/20 13:33:00;;;;;;;19.10;13.80;;;24.80;1.00;;;;;;5029551;28;20862;-81
2023/04/20 13:35:27;;;;;;;16.83;13.63;;;25.20;1.00;;;;;;5027144;28;20464;-82
2023/04/20 13:37:56;;;;;;;15.70;12.70;;;25.10;1.00;;;;;;5030063;28;20464;-81
2023/04/20 13:40:23;;;;;;;18.53;12.30;;;25.50;1.00;;;;;;5031703;28;20493;-81
2023/04/20 13:42:50;;;;;;;16.13;12.70;;;26.10;1.00;;;;;;5031683;28;20480;-82
2023/04/20 13:45:17;;;;;;;15.80;13.30;;;25.60;1.00;;;;;;5029808;28;20456;-82
2023/04/20 13:47:44;;;;;;;14.27;12.43;;;25.00;1.00;;;;;;5028543;28;20538;-82
2023/04/20 13:50:13;;;;;;;16.63;13.80;;;23.90;1.00;;;;;;5028602;28;20426;-82
2023/04/20 13:52:40;;;;;;;14.70;11.80;;;22.60;1.00;;;;;;5033638;28;20542;-81
2023/04/20 13:55:07;;;;;;;13.80;11.80;;;21.10;1.00;;;;;;5030292;28;20442;-83
2023/04/20 13:57:34;;;;;;;18.70;13.43;;;21.20;1.00;;;;;;5031974;28;20458;-84
2023/04/20 14:00:01;;;;;;;16.97;12.50;;;22.10;1.00;;;;;;5026123;28;20427;-84
2023/04/20 14:02:29;;;;;;;16.37;13.37;;;22.70;1.00;;;;;;5018118;28;20467;-83
2023/04/20 14:04:56;;;;;;;16.93;12.83;;;22.90;1.00;;;;;;5026116;28;20571;-81
2023/04/20 14:07:25;;;;;;;14.97;12.00;;;24.10;1.00;;;;;;5027260;28;20472;-81
2023/04/20 14:09:55;;;;;;;15.80;12.70;;;26.40;1.00;;;;;;5031145;28;20852;-83
2023/04/20 14:12:22;;;;;;;13.03;11.10;;;27.80;1.00;;;;;;5027209;28;20565;-81
2023/04/20 14:14:49;;;;;;;14.23;11.93;;;28.90;1.00;;;;;;5009625;28;20545;-82
2023/04/20 14:17:18;;;;;;;14.67;11.80;;;29.40;1.00;;;;;;5033354;28;20484;-83
2023/04/20 14:19:45;;;;;;;14.10;11.90;;;29.70;1.00;;;;;;5030204;28;20517;-81
2023/04/20 14:22:12;;;;;;;12.70;10.53;;;28.60;1.00;;;;;;5027443;28;20495;-81
2023/04/20 14:24:41;;;;;;;15.70;12.23;;;26.70;1.00;;;;;;5030730;28;20463;-82
2023/04/20 14:27:08;;;;;;;18.40;13.40;;;25.60;1.00;;;;;;5025629;28;20631;-80
2023/04/20 14:29:34;;;;;;;15.63;10.50;;;24.60;1.00;;;;;;5016050;28;20562;-80
2023/04/20 14:32:02;;;;;;;14.30;11.20;;;23.50;1.00;;;;;;5027860;28;20471;-80
2023/04/20 14:34:33;;;;;;;14.87;11.60;;;22.60;1.00;;;;;;5032209;28;20480;-82
2023/04/20 14:37:00;;;;;;;14.40;10.40;;;21.90;1.00;;;;;;5025690;28;20492;-81
2023/04/20 14:39:30;;;;;;;12.90;10.13;;;22.20;1.00;;;;;;5018953;28;20424;-81
2023/04/20 14:41:58;;;;;;;12.73;9.30;;;22.30;1.00;;;;;;5028729;28;20977;-84
2023/04/20 14:44:28;;;;;;;13.80;10.10;;;22.20;1.00;;;;;;5026981;28;20546;-82
2023/04/20 14:46:55;;;;;;;12.97;10.00;;;22.20;1.00;;;;;;5029341;28;20439;-81
2023/04/20 14:49:22;;;;;;;13.67;12.00;;;22.10;1.00;;;;;;5025052;28;20545;-83
2023/04/20 14:51:50;;;;;;;11.50;9.17;;;21.50;1.00;;;;;;5014571;28;20516;-85
2023/04/20 14:54:17;;;;;;;12.00;9.20;;;21.00;1.00;;;;;;5028812;28;20500;-81
2023/04/20 14:56:45;;;;;;;14.50;10.50;;;20.50;1.00;;;;;;5026200;28;20540;-82
2023/04/20 14:59:15;;;;;;;11.30;9.37;;;20.30;1.00;;;;;;5014139;28;20448;-81
2023/04/20 15:01:43;;;;;;;24.80;16.80;;;20.20;1.00;;;;;;5028273;28;21222;-81
2023/04/20 15:04:10;;;;;;;21.77;13.77;;;19.80;1.00;;;;;;5023780;28;20469;-80
2023/04/20 15:06:37;;;;;;;17.90;12.30;;;19.50;1.00;;;;;;5024594;28;20549;-82
2023/04/20 15:09:07;;;;;;;17.10;10.60;;;19.40;1.00;;;;;;5028558;28;20485;-82
2023/04/20 15:11:40;;;;;;;17.73;10.10;;;19.30;1.00;;;;;;5028712;28;21055;-81
2023/04/20 15:14:07;;;;;;;14.53;8.90;;;19.00;1.00;;;;;;5029257;28;20797;-79
2023/04/20 15:16:35;;;;;;;11.63;8.70;;;18.90;1.00;;;;;;5031490;28;20474;-80
2023/04/20 15:19:03;;;;;;;12.67;9.47;;;18.70;1.00;;;;;;5030105;28;20520;-80
2023/04/20 15:21:31;;;;;;;11.87;8.37;;;18.60;1.00;;;;;;5000361;28;20480;-81
2023/04/20 15:23:59;;;;;;;13.23;8.73;;;18.60;1.00;;;;;;5028344;28;20524;-80
2023/04/20 15:26:26;;;;;;;12.93;8.60;;;18.50;1.00;;;;;;5028314;28;20444;-79
2023/04/20 15:28:53;;;;;;;11.93;9.07;;;18.50;1.00;;;;;;5023300;28;20547;-83
2023/04/20 15:31:20;;;;;;;13.90;9.90;;;18.40;1.00;;;;;;5026722;28;20452;-82